Woodcote, United Kingdom
Current Conditions -  °F | °C
As of 6:50 PM on Saturday 20 Dec 2014 (Local Time) from EGOS Reporting Station
Scattered Clouds Scattered Clouds  
Wind Chill: 39°   Ceiling: Unl
Heat Index: 43°   Visibility: 6mi
Dew Point: 39°   Wind: 7mph
Humidity: 87%   Direction: 250°WSW
Pressure: 30.36"   Gusts: NA
Location:  52.73°N, 2.33°W
Report Text: EGOS 201850Z AUTO 25006KT 9999 SCT038/// 06/04 Q1028
Loading
Personal Weather Stations






























Interactive Weather Map New forecast layout! Learn more

10-Day Weather Forecast

Advertisements
Track Severe Weather on mobile